PROFILE

 METAR AND TAF INFORMATION
ADDS - METARS form results

(0555 UTC 22 September 2019)
http://aviationweather.gov/metar/data/
 
TNCA 220500Z 09002KT 9999 SCT017 SCT030 26/24 Q1012 NOSIG
TAF TNCA 220515Z 2206/2306 13005KT 9999 SCT018 TEMPO 2206/2218 6000 SHRA BKN015 PROB30 TEMPO 2206/2218 3000 TSRA FEW012CB 

 AIRPORT MAP

 RUNWAY INFORMATION
Runway 11 Runway length 9000 ft Runway width 148 ft
Runway elevation 12 ft Runway displaced threshold 0 ft Runway heading 104
Runway 29 Runway length 9000 ft Runway width 148 ft
Runway elevation 62 ft Runway displaced threshold 0 ft Runway heading 284

 AIRPORT FREQUENCIES
Type ATIS Name ATIS Frequency 132.1 MHZ
Type GND Name GND Frequency 121.9 MHZ
Type MISC Name SEARCH AND Frequency 123.1 MHZ
Type RMP Name BEATRIX AP Frequency 121.6 MHZ
Type TWR Name BEATRIX TW Frequency 120.9 MHZ

 AIRPORT NEAR NAVIGATION AIDS
Type VOR-DME Name Aruba Frequency 112500 KHZ
Type VOR-DME Name Reina Beatrix Frequency 113800 KHZ